Time;durP1;ratioP1;P1;durP2;ratioP2;P2;SDS_P1;SDS_P2;PMS_P1;PMS_P2;Temp;Humidity;BMP_temperature;BMP_pressure;BME280_temperature;BME280_humidity;BME280_pressure;Samples;Min_cycle;Max_cycle;Signal;HPM_P1;HPM_P2
2021/11/19 00:00:43;;;;;;;28.97;16.13;;;10.40;99.90;;;;;;5056551;28;20192;-84
2021/11/19 00:03:11;;;;;;;32.37;18.27;;;10.50;99.90;;;;;;5055929;28;20204;-84
2021/11/19 00:05:40;;;;;;;27.07;16.30;;;10.60;99.90;;;;;;5057000;28;20200;-86
2021/11/19 00:08:06;;;;;;;25.63;16.57;;;10.60;99.90;;;;;;5054972;28;20215;-85
2021/11/19 00:10:33;;;;;;;32.43;17.67;;;10.80;99.90;;;;;;5055091;28;20325;-83
2021/11/19 00:12:58;;;;;;;30.30;17.63;;;10.60;99.90;;;;;;5055900;28;20169;-83
2021/11/19 00:15:26;;;;;;;27.80;16.67;;;10.70;99.90;;;;;;5056523;28;20725;-85
2021/11/19 00:17:52;;;;;;;26.67;16.27;;;10.70;99.90;;;;;;5056548;28;20189;-84
2021/11/19 00:20:20;;;;;;;31.23;18.97;;;10.60;99.90;;;;;;5057666;28;20656;-84
2021/11/19 00:22:47;;;;;;;29.47;17.07;;;10.70;99.90;;;;;;5063007;28;20232;-84
2021/11/19 00:25:13;;;;;;;28.97;17.03;;;10.60;99.90;;;;;;5054472;28;20225;-84
2021/11/19 00:27:40;;;;;;;32.30;17.90;;;10.70;99.90;;;;;;5053283;28;20579;-84
2021/11/19 00:30:12;;;;;;;34.20;17.73;;;10.60;99.90;;;;;;5052728;28;20641;-83
2021/11/19 00:32:38;;;;;;;27.47;16.97;;;10.60;99.90;;;;;;5053494;28;20679;-84
2021/11/19 00:35:05;;;;;;;27.30;17.17;;;10.70;99.90;;;;;;5053957;28;20260;-83
2021/11/19 00:37:31;;;;;;;27.23;18.43;;;10.60;99.90;;;;;;5052874;28;20153;-85
2021/11/19 00:39:57;;;;;;;22.80;16.73;;;10.80;99.90;;;;;;5052615;28;20169;-84
2021/11/19 00:42:23;;;;;;;27.10;17.03;;;10.70;99.90;;;;;;5052667;28;20267;-84
2021/11/19 00:44:48;;;;;;;29.30;17.83;;;10.80;99.90;;;;;;5052112;28;20172;-84
2021/11/19 00:47:15;;;;;;;26.43;18.33;;;10.80;99.90;;;;;;5052679;28;20188;-83
2021/11/19 00:49:42;;;;;;;29.07;17.23;;;10.80;99.90;;;;;;5052420;28;20188;-83
2021/11/19 00:52:10;;;;;;;29.87;17.33;;;10.90;99.90;;;;;;5064388;28;20244;-81
2021/11/19 00:54:36;;;;;;;32.90;18.63;;;11.00;99.90;;;;;;5073488;28;20177;-86
2021/11/19 00:57:07;;;;;;;26.93;17.47;;;11.00;99.90;;;;;;5056978;28;20218;-84
2021/11/19 00:59:35;;;;;;;26.03;16.90;;;10.90;99.90;;;;;;5056849;28;20177;-83
2021/11/19 01:02:08;;;;;;;28.83;18.57;;;10.90;99.90;;;;;;5057214;28;20197;-85
2021/11/19 01:04:35;;;;;;;38.73;18.43;;;10.80;99.90;;;;;;5058523;28;20272;-83
2021/11/19 01:07:02;;;;;;;32.17;18.30;;;10.80;99.90;;;;;;5067593;28;20173;-82
2021/11/19 01:09:33;;;;;;;30.53;18.97;;;10.90;99.90;;;;;;5075285;28;20215;-85
2021/11/19 01:12:01;;;;;;;31.27;19.43;;;11.00;99.90;;;;;;5062888;28;20173;-83
2021/11/19 01:14:42;;;;;;;26.77;18.67;;;10.80;99.90;;;;;;5056344;28;20185;-83
2021/11/19 01:17:14;;;;;;;30.77;18.57;;;10.80;99.90;;;;;;5055777;28;20647;-83
2021/11/19 01:19:55;;;;;;;31.00;18.83;;;10.80;99.90;;;;;;5055922;28;20189;-84
2021/11/19 01:22:27;;;;;;;28.37;17.77;;;10.80;99.90;;;;;;5055473;28;20189;-83
2021/11/19 01:24:53;;;;;;;31.47;19.67;;;10.70;99.90;;;;;;5055921;28;20177;-83
2021/11/19 01:27:20;;;;;;;28.10;20.33;;;10.70;99.90;;;;;;5055681;28;20172;-82
2021/11/19 01:29:47;;;;;;;33.37;20.47;;;10.70;99.90;;;;;;5057338;28;20169;-84
2021/11/19 01:32:19;;;;;;;28.77;19.63;;;10.60;99.90;;;;;;5055717;28;20519;-85
2021/11/19 01:34:46;;;;;;;33.70;20.90;;;10.70;99.90;;;;;;5055739;28;20219;-84
2021/11/19 01:37:12;;;;;;;40.13;21.30;;;10.90;99.90;;;;;;5056783;28;20165;-84
2021/11/19 01:39:39;;;;;;;36.33;20.70;;;10.90;99.90;;;;;;5063059;28;20168;-84
2021/11/19 01:42:37;;;;;;;29.20;20.53;;;10.70;99.90;;;;;;5070523;28;20180;-85
2021/11/19 01:45:12;;;;;;;30.93;19.47;;;10.70;99.90;;;;;;5042935;28;20244;-84
2021/11/19 01:47:41;;;;;;;33.70;20.43;;;10.70;99.90;;;;;;5067496;28;20200;-84
2021/11/19 01:50:23;;;;;;;32.67;22.93;;;10.70;99.90;;;;;;5058964;28;20191;-84
2021/11/19 01:52:55;;;;;;;26.87;20.13;;;10.70;99.90;;;;;;5055003;28;20173;-84
2021/11/19 01:55:35;;;;;;;34.90;23.33;;;10.70;99.90;;;;;;5054838;28;20219;-85
2021/11/19 01:58:13;;;;;;;35.90;22.13;;;10.70;99.90;;;;;;5057396;28;20173;-84
2021/11/19 02:00:49;;;;;;;32.33;22.20;;;10.70;99.90;;;;;;5055366;28;20185;-84
2021/11/19 02:03:17;;;;;;;30.37;21.07;;;10.60;99.90;;;;;;5053946;28;20248;-83
2021/11/19 02:06:14;;;;;;;32.87;22.37;;;10.70;99.90;;;;;;5053533;28;20655;-83
2021/11/19 02:08:44;;;;;;;32.73;22.03;;;10.70;99.90;;;;;;5053322;28;20696;-83
2021/11/19 02:11:47;;;;;;;32.87;22.70;;;10.70;99.90;;;;;;5054172;28;20637;-83
2021/11/19 02:14:13;;;;;;;39.53;23.63;;;10.70;99.90;;;;;;5054325;28;20165;-83
2021/11/19 02:16:47;;;;;;;34.23;22.77;;;10.80;99.90;;;;;;5054722;28;20165;-83
2021/11/19 02:19:16;;;;;;;30.83;21.07;;;10.80;99.90;;;;;;5053714;28;20208;-83
2021/11/19 02:21:43;;;;;;;33.57;22.90;;;10.80;99.90;;;;;;5053999;28;20184;-84
2021/11/19 02:24:16;;;;;;;35.47;22.90;;;10.80;99.90;;;;;;5054606;28;20246;-84
2021/11/19 02:26:54;;;;;;;36.20;22.80;;;10.80;99.90;;;;;;5055023;28;20736;-84
2021/11/19 02:29:21;;;;;;;30.10;22.20;;;10.80;99.90;;;;;;5055350;28;20246;-84
2021/11/19 02:31:52;;;;;;;32.33;23.10;;;11.00;99.90;;;;;;5054129;28;20246;-84
2021/11/19 02:34:19;;;;;;;35.93;23.13;;;10.80;99.90;;;;;;5053629;28;20177;-84
2021/11/19 02:36:51;;;;;;;37.67;23.27;;;10.90;99.90;;;;;;5054344;28;20536;-84
2021/11/19 02:39:25;;;;;;;31.20;22.27;;;10.90;99.90;;;;;;5053147;28;20654;-84
2021/11/19 02:41:57;;;;;;;28.37;22.07;;;10.90;99.90;;;;;;5054133;28;20222;-84
2021/11/19 02:44:25;;;;;;;28.30;21.80;;;11.00;99.90;;;;;;5053478;28;20168;-85
2021/11/19 02:46:56;;;;;;;28.43;21.97;;;11.00;99.90;;;;;;5054570;28;20173;-84
2021/11/19 02:49:22;;;;;;;31.47;22.07;;;11.00;99.90;;;;;;5054615;28;20204;-84
2021/11/19 02:51:49;;;;;;;33.80;22.03;;;11.10;99.90;;;;;;5053427;28;20538;-84
2021/11/19 02:54:19;;;;;;;34.80;21.50;;;11.10;99.90;;;;;;5053967;28;20230;-83
2021/11/19 02:56:46;;;;;;;32.37;22.37;;;11.40;99.90;;;;;;5052370;28;20326;-83
2021/11/19 02:59:13;;;;;;;31.83;22.93;;;11.30;99.90;;;;;;5053624;28;20263;-84
2021/11/19 03:01:49;;;;;;;33.47;23.23;;;11.40;99.90;;;;;;5053743;28;20185;-84
2021/11/19 03:04:26;;;;;;;29.67;24.03;;;11.20;99.90;;;;;;5065701;28;20153;-83
2021/11/19 03:06:55;;;;;;;31.27;23.50;;;11.10;99.90;;;;;;5071196;28;20177;-83
2021/11/19 03:09:24;;;;;;;28.70;23.10;;;11.10;99.90;;;;;;5072022;28;20180;-83
2021/11/19 03:11:51;;;;;;;30.13;23.13;;;11.20;99.90;;;;;;5064078;28;20176;-84
2021/11/19 03:14:21;;;;;;;34.83;23.40;;;11.10;99.90;;;;;;5055516;28;20264;-84
2021/11/19 03:16:46;;;;;;;30.33;23.23;;;11.10;99.90;;;;;;5055041;28;20165;-83
2021/11/19 03:19:13;;;;;;;30.73;23.07;;;11.00;99.90;;;;;;5054213;28;20561;-84
2021/11/19 03:21:40;;;;;;;34.87;24.13;;;11.20;99.90;;;;;;5053381;28;20173;-83
2021/11/19 03:24:07;;;;;;;29.80;23.30;;;11.10;99.90;;;;;;5057201;28;20201;-85
2021/11/19 03:26:34;;;;;;;32.57;23.80;;;11.10;99.90;;;;;;5055110;28;20173;-85
2021/11/19 03:29:02;;;;;;;34.10;24.93;;;11.10;99.90;;;;;;5074339;28;20204;-84
2021/11/19 03:31:28;;;;;;;29.60;23.93;;;11.00;99.90;;;;;;5074035;28;20173;-83
2021/11/19 03:33:54;;;;;;;37.97;24.90;;;11.10;99.90;;;;;;5074075;28;20165;-83
2021/11/19 03:36:23;;;;;;;31.47;24.43;;;11.30;99.90;;;;;;5075173;28;20165;-83
2021/11/19 03:38:52;;;;;;;30.70;24.20;;;11.30;99.90;;;;;;5058439;28;20173;-83
2021/11/19 03:41:23;;;;;;;35.83;24.70;;;11.20;99.90;;;;;;5054032;28;20690;-83
2021/11/19 03:44:07;;;;;;;31.60;24.07;;;11.20;99.90;;;;;;5054091;28;20168;-85
2021/11/19 03:47:09;;;;;;;31.33;23.87;;;11.20;99.90;;;;;;5053963;28;20686;-83
2021/11/19 03:49:40;;;;;;;30.07;24.10;;;11.10;99.90;;;;;;5045184;28;20224;-83
2021/11/19 03:52:11;;;;;;;29.97;23.13;;;11.10;99.90;;;;;;5054306;28;20196;-83
2021/11/19 03:54:43;;;;;;;32.23;24.50;;;11.10;99.90;;;;;;5055300;28;20175;-84
2021/11/19 03:57:11;;;;;;;33.27;24.73;;;11.10;99.90;;;;;;5054373;28;20256;-83
2021/11/19 03:59:37;;;;;;;31.13;24.47;;;11.20;99.90;;;;;;5054384;28;20165;-84
2021/11/19 04:02:04;;;;;;;32.27;25.73;;;11.20;99.90;;;;;;5052781;28;20563;-84
2021/11/19 04:04:32;;;;;;;35.43;24.03;;;11.30;99.90;;;;;;5051663;28;20177;-84
2021/11/19 04:07:00;;;;;;;33.87;25.23;;;11.20;99.90;;;;;;5054033;28;20177;-82
2021/11/19 04:09:27;;;;;;;32.30;24.63;;;11.20;99.90;;;;;;5061779;28;20232;-85
2021/11/19 04:11:54;;;;;;;30.77;23.30;;;11.30;99.90;;;;;;5062726;28;20637;-83
2021/11/19 04:14:20;;;;;;;33.13;25.80;;;11.20;99.90;;;;;;5061756;28;20222;-82
2021/11/19 04:16:48;;;;;;;31.07;23.73;;;11.10;99.90;;;;;;5063522;28;20160;-81
2021/11/19 04:19:16;;;;;;;30.20;23.73;;;11.20;99.90;;;;;;5065668;28;20169;-82
2021/11/19 04:21:42;;;;;;;31.40;25.23;;;11.00;99.90;;;;;;5046757;28;20177;-83
2021/11/19 04:24:12;;;;;;;34.23;25.63;;;11.00;99.90;;;;;;5059603;28;20197;-84
2021/11/19 04:26:40;;;;;;;32.60;25.17;;;10.90;99.90;;;;;;5052496;28;20303;-83
2021/11/19 04:29:06;;;;;;;34.30;25.73;;;10.90;99.90;;;;;;5053662;28;20325;-83
2021/11/19 04:31:34;;;;;;;32.20;24.93;;;11.00;99.90;;;;;;5052681;28;20177;-84
2021/11/19 04:34:06;;;;;;;30.73;24.50;;;11.00;99.90;;;;;;5052648;28;20647;-82
2021/11/19 04:36:32;;;;;;;33.63;25.43;;;11.00;99.90;;;;;;5052335;28;20204;-84
2021/11/19 04:38:58;;;;;;;36.10;23.93;;;11.00;99.90;;;;;;5052106;28;20614;-84
2021/11/19 04:41:24;;;;;;;33.70;25.30;;;11.10;99.90;;;;;;5052350;28;20173;-84
2021/11/19 04:43:50;;;;;;;34.27;24.40;;;11.00;99.90;;;;;;5052320;28;20183;-84
2021/11/19 04:46:16;;;;;;;32.10;24.67;;;10.90;99.90;;;;;;5053527;28;20660;-84
2021/11/19 04:48:43;;;;;;;29.70;24.33;;;11.00;99.90;;;;;;5052463;28;20208;-84
2021/11/19 04:51:19;;;;;;;31.83;24.13;;;11.00;99.90;;;;;;5060048;28;20580;-84
2021/11/19 04:53:46;;;;;;;31.57;24.37;;;11.00;99.90;;;;;;5073830;28;20184;-85
2021/11/19 04:56:12;;;;;;;30.83;23.73;;;11.10;99.90;;;;;;5070041;28;20173;-83
2021/11/19 04:58:39;;;;;;;32.00;23.50;;;11.00;99.90;;;;;;5069572;28;20191;-82
2021/11/19 05:01:19;;;;;;;31.90;24.23;;;11.10;99.90;;;;;;5059562;28;20287;-84
2021/11/19 05:03:46;;;;;;;31.10;23.67;;;11.00;99.90;;;;;;5057174;28;20204;-82
2021/11/19 05:06:12;;;;;;;29.80;23.50;;;11.10;99.90;;;;;;5053541;28;20173;-82
2021/11/19 05:08:39;;;;;;;31.77;23.37;;;11.30;99.90;;;;;;5053846;28;20224;-84
2021/11/19 05:11:07;;;;;;;31.03;24.10;;;11.40;99.90;;;;;;5054336;28;20747;-83
2021/11/19 05:13:34;;;;;;;32.37;24.07;;;11.30;99.90;;;;;;5050856;28;20191;-84
2021/11/19 05:16:04;;;;;;;28.37;24.07;;;11.30;99.90;;;;;;5051636;28;20656;-84
2021/11/19 05:18:30;;;;;;;32.37;24.10;;;11.20;99.90;;;;;;5054315;28;20173;-83
2021/11/19 05:20:58;;;;;;;29.03;24.23;;;11.20;99.90;;;;;;5051569;28;20173;-84
2021/11/19 05:23:25;;;;;;;33.77;24.87;;;11.30;99.90;;;;;;5052168;28;20565;-83
2021/11/19 05:25:51;;;;;;;31.40;24.30;;;11.20;99.90;;;;;;5051816;28;20319;-83
2021/11/19 05:28:20;;;;;;;31.77;23.50;;;11.20;99.90;;;;;;5052204;28;20201;-83
2021/11/19 05:30:46;;;;;;;35.47;24.47;;;11.20;99.90;;;;;;5052544;28;20172;-85
2021/11/19 05:33:15;;;;;;;32.53;24.10;;;11.20;99.90;;;;;;5051410;28;20213;-83
2021/11/19 05:35:42;;;;;;;34.53;25.10;;;11.30;99.90;;;;;;5052878;28;20188;-84
2021/11/19 05:38:09;;;;;;;34.10;24.60;;;11.30;99.90;;;;;;5051653;28;20180;-85
2021/11/19 05:40:35;;;;;;;30.07;23.07;;;11.20;99.90;;;;;;5055172;28;20195;-83
2021/11/19 05:43:01;;;;;;;30.27;23.90;;;11.20;99.90;;;;;;5055199;28;20177;-83
2021/11/19 05:45:30;;;;;;;31.60;24.47;;;11.20;99.90;;;;;;5054843;28;20184;-84
2021/11/19 05:47:56;;;;;;;31.70;23.97;;;11.20;99.90;;;;;;5055040;28;20307;-85
2021/11/19 05:50:25;;;;;;;34.80;24.80;;;11.20;99.90;;;;;;5055259;28;20222;-84
2021/11/19 05:52:57;;;;;;;35.77;25.37;;;11.20;99.90;;;;;;5055514;28;20176;-84
2021/11/19 05:55:24;;;;;;;30.33;24.00;;;11.20;99.90;;;;;;5054472;28;20687;-85
2021/11/19 05:57:50;;;;;;;30.10;23.40;;;11.30;99.90;;;;;;5055259;28;20276;-84
2021/11/19 06:00:22;;;;;;;32.83;25.37;;;11.20;99.90;;;;;;5055124;28;20291;-83
2021/11/19 06:02:50;;;;;;;31.67;24.37;;;11.20;99.90;;;;;;5055000;28;20181;-84
2021/11/19 06:05:16;;;;;;;33.30;24.07;;;11.30;99.90;;;;;;5054623;28;20181;-83
2021/11/19 06:07:42;;;;;;;29.33;23.83;;;11.30;99.90;;;;;;5055724;28;20184;-83
2021/11/19 06:10:09;;;;;;;31.37;24.47;;;11.20;99.90;;;;;;5060638;28;20196;-84
2021/11/19 06:12:46;;;;;;;30.53;23.67;;;11.30;99.90;;;;;;5069590;28;20191;-83
2021/11/19 06:15:17;;;;;;;34.13;24.33;;;11.40;99.90;;;;;;5074359;28;20226;-82
2021/11/19 06:17:48;;;;;;;29.43;23.77;;;11.50;99.90;;;;;;5062634;28;20180;-84
2021/11/19 06:20:22;;;;;;;34.53;26.30;;;11.40;99.90;;;;;;5056126;28;20231;-84
2021/11/19 06:22:59;;;;;;;31.07;24.03;;;11.30;99.90;;;;;;5057316;28;20192;-84
2021/11/19 06:25:32;;;;;;;31.27;24.17;;;11.40;99.90;;;;;;5058154;28;20192;-83
2021/11/19 06:28:02;;;;;;;32.87;24.57;;;11.30;99.90;;;;;;5056681;28;20686;-84
2021/11/19 06:30:29;;;;;;;32.83;25.00;;;11.30;99.90;;;;;;5056180;28;20177;-84
2021/11/19 06:32:56;;;;;;;32.03;25.83;;;11.40;99.90;;;;;;5058592;28;20251;-84
2021/11/19 06:35:22;;;;;;;33.33;26.07;;;11.50;99.90;;;;;;5054690;28;20692;-83
2021/11/19 06:37:48;;;;;;;30.73;24.43;;;11.50;99.90;;;;;;5054697;28;20169;-84
2021/11/19 06:40:19;;;;;;;30.37;25.23;;;11.40;99.90;;;;;;5054194;28;20173;-84
2021/11/19 06:42:45;;;;;;;33.17;26.47;;;11.40;99.90;;;;;;5053982;28;20538;-84
2021/11/19 06:45:14;;;;;;;32.20;25.37;;;11.50;99.90;;;;;;5055632;28;20185;-84
2021/11/19 06:47:42;;;;;;;40.87;27.27;;;11.50;99.90;;;;;;5056401;28;20260;-83
2021/11/19 06:50:10;;;;;;;35.47;25.53;;;11.50;99.90;;;;;;5055161;28;20542;-85
2021/11/19 06:52:38;;;;;;;37.50;27.23;;;11.60;99.90;;;;;;5055803;28;20188;-82
2021/11/19 06:55:08;;;;;;;35.97;28.13;;;11.40;99.90;;;;;;5056039;28;20180;-85
2021/11/19 06:57:34;;;;;;;32.30;26.37;;;11.50;99.90;;;;;;5055024;28;20630;-84
2021/11/19 07:00:00;;;;;;;38.43;29.20;;;11.60;99.90;;;;;;5056259;28;20185;-84
2021/11/19 07:02:26;;;;;;;36.87;27.87;;;11.50;99.90;;;;;;5053856;28;20219;-85
2021/11/19 07:04:51;;;;;;;37.50;27.80;;;11.60;99.90;;;;;;5051357;28;20326;-84
2021/11/19 07:07:17;;;;;;;37.07;28.27;;;11.50;99.90;;;;;;5034782;28;20170;-85
2021/11/19 07:09:45;;;;;;;38.10;27.87;;;11.60;99.90;;;;;;5053047;28;20747;-85
2021/11/19 07:12:12;;;;;;;37.60;29.67;;;11.70;99.90;;;;;;5060605;28;20254;-82
2021/11/19 07:14:39;;;;;;;38.20;29.20;;;11.60;99.90;;;;;;5065728;28;20686;-84
2021/11/19 07:17:07;;;;;;;41.33;30.47;;;11.70;99.90;;;;;;5055975;28;20172;-84
2021/11/19 07:19:35;;;;;;;39.73;30.10;;;11.70;99.90;;;;;;5055542;28;20178;-85
2021/11/19 07:22:02;;;;;;;42.23;29.13;;;11.50;99.90;;;;;;5054159;28;20165;-85
2021/11/19 07:24:28;;;;;;;38.40;29.43;;;11.30;99.90;;;;;;5054940;28;20176;-84
2021/11/19 07:26:54;;;;;;;37.07;28.67;;;11.40;99.90;;;;;;5054458;28;20564;-85
2021/11/19 07:29:21;;;;;;;36.73;28.83;;;11.40;99.90;;;;;;5054758;28;20691;-84
2021/11/19 07:31:49;;;;;;;38.20;28.90;;;11.30;99.90;;;;;;5065924;28;20196;-84
2021/11/19 07:34:16;;;;;;;35.27;28.47;;;11.30;99.90;;;;;;5074831;28;20223;-85
2021/11/19 07:36:41;;;;;;;40.50;29.43;;;11.30;99.90;;;;;;5065887;28;20540;-84
2021/11/19 07:39:09;;;;;;;37.33;29.37;;;11.40;99.90;;;;;;5056805;28;20184;-85
2021/11/19 07:41:35;;;;;;;39.43;30.23;;;11.40;99.90;;;;;;5054147;28;20177;-84
2021/11/19 07:44:03;;;;;;;37.00;28.20;;;11.30;99.90;;;;;;5054522;28;20665;-84
2021/11/19 07:46:31;;;;;;;41.50;28.53;;;11.30;99.90;;;;;;5054620;28;20259;-86
2021/11/19 07:48:57;;;;;;;38.13;29.77;;;11.50;99.90;;;;;;5053051;28;20219;-87
2021/11/19 07:51:27;;;;;;;39.93;29.97;;;11.40;99.90;;;;;;5053970;28;20613;-85
2021/11/19 07:53:54;;;;;;;38.63;28.73;;;11.50;99.90;;;;;;5046210;28;20174;-86
2021/11/19 07:56:29;;;;;;;42.33;29.93;;;11.50;99.90;;;;;;5042423;28;20173;-84
2021/11/19 07:58:56;;;;;;;40.63;30.40;;;11.50;99.90;;;;;;5050188;28;20172;-84
2021/11/19 08:01:21;;;;;;;39.87;30.03;;;11.40;99.90;;;;;;5052533;28;20200;-84
2021/11/19 08:03:47;;;;;;;42.83;30.50;;;11.40;99.90;;;;;;5052337;28;20211;-85
2021/11/19 08:06:14;;;;;;;41.50;30.47;;;11.40;99.90;;;;;;5052222;28;20184;-83
2021/11/19 08:08:40;;;;;;;43.33;30.17;;;11.40;99.90;;;;;;5051859;28;20251;-83
2021/11/19 08:11:08;;;;;;;40.93;31.30;;;11.40;99.90;;;;;;5052792;28;20176;-84
2021/11/19 08:13:35;;;;;;;40.10;31.77;;;11.40;99.90;;;;;;5049547;28;20181;-83
2021/11/19 08:16:01;;;;;;;39.60;29.87;;;11.50;99.90;;;;;;5048201;28;20183;-84
2021/11/19 08:18:32;;;;;;;44.67;32.67;;;11.50;99.90;;;;;;5041444;28;20267;-84
2021/11/19 08:20:59;;;;;;;40.57;31.03;;;11.60;99.90;;;;;;5036714;28;20185;-85
2021/11/19 08:23:33;;;;;;;40.03;30.73;;;11.50;99.90;;;;;;5054945;28;20656;-82
2021/11/19 08:26:05;;;;;;;38.57;30.97;;;11.50;99.90;;;;;;5052818;28;20585;-85
2021/11/19 08:28:33;;;;;;;43.60;30.67;;;11.60;99.90;;;;;;5051334;28;20213;-83
2021/11/19 08:31:01;;;;;;;35.93;28.33;;;11.60;99.90;;;;;;5051351;28;20200;-83
2021/11/19 08:33:27;;;;;;;38.13;29.00;;;11.70;99.90;;;;;;5054796;28;20637;-83
2021/11/19 08:35:53;;;;;;;39.27;31.30;;;11.60;99.90;;;;;;5052487;28;20180;-84
2021/11/19 08:38:21;;;;;;;38.20;29.07;;;11.70;99.90;;;;;;5051805;28;20226;-84
2021/11/19 08:40:53;;;;;;;38.67;29.30;;;11.60;99.90;;;;;;5052528;28;20186;-84
2021/11/19 08:43:27;;;;;;;40.87;28.93;;;11.70;99.90;;;;;;5052446;28;20185;-82
2021/11/19 08:45:54;;;;;;;36.17;28.33;;;11.60;99.90;;;;;;5044942;28;20189;-84
2021/11/19 08:48:26;;;;;;;40.10;30.30;;;11.60;99.90;;;;;;5053177;28;20212;-82
2021/11/19 08:50:53;;;;;;;40.07;31.27;;;11.70;99.90;;;;;;5054453;28;20173;-82
2021/11/19 08:53:19;;;;;;;36.53;29.73;;;11.70;99.90;;;;;;5055595;28;20185;-84
2021/11/19 08:55:59;;;;;;;40.30;29.27;;;11.90;99.90;;;;;;5057649;28;20254;-86
2021/11/19 08:58:29;;;;;;;39.37;31.20;;;11.80;99.90;;;;;;5054898;28;20640;-84
2021/11/19 09:00:56;;;;;;;39.90;29.23;;;11.80;99.90;;;;;;5053222;28;20234;-85
2021/11/19 09:03:23;;;;;;;36.00;28.73;;;11.80;99.90;;;;;;5055980;28;20212;-85
2021/11/19 09:05:50;;;;;;;38.57;28.57;;;11.80;99.90;;;;;;5047660;28;20174;-85
2021/11/19 09:08:18;;;;;;;36.67;28.77;;;11.80;99.90;;;;;;5048466;28;20207;-86
2021/11/19 09:10:46;;;;;;;38.07;29.27;;;11.90;99.90;;;;;;5055220;28;20247;-86
2021/11/19 09:13:12;;;;;;;38.43;30.00;;;11.90;99.90;;;;;;5057911;28;20705;-85
2021/11/19 09:15:40;;;;;;;34.63;28.63;;;11.90;99.90;;;;;;5060407;28;20180;-85
2021/11/19 09:18:13;;;;;;;38.70;30.40;;;12.00;99.90;;;;;;5042927;28;20561;-85
2021/11/19 09:21:08;;;;;;;38.70;28.73;;;12.00;99.90;;;;;;5042933;28;20201;-84
2021/11/19 09:23:42;;;;;;;39.47;29.80;;;12.00;99.90;;;;;;5046217;28;20189;-85
2021/11/19 09:26:18;;;;;;;36.50;28.67;;;12.10;99.90;;;;;;5068722;28;20179;-85
2021/11/19 09:28:48;;;;;;;38.73;30.03;;;12.10;99.90;;;;;;5063959;28;20747;-84
2021/11/19 09:31:17;;;;;;;42.40;29.93;;;12.10;99.90;;;;;;5061504;28;20498;-84
2021/11/19 09:33:44;;;;;;;38.87;30.07;;;12.30;99.90;;;;;;5059195;28;20268;-84
2021/11/19 09:36:11;;;;;;;38.20;30.63;;;12.30;99.90;;;;;;5059036;28;20520;-85
2021/11/19 09:38:37;;;;;;;40.33;30.33;;;12.10;99.90;;;;;;5042390;28;20181;-84
2021/11/19 09:41:09;;;;;;;41.00;30.13;;;12.10;99.90;;;;;;5069471;28;20203;-85
2021/11/19 09:44:03;;;;;;;42.10;31.70;;;12.30;99.90;;;;;;5070431;28;20286;-86
2021/11/19 09:46:50;;;;;;;38.50;30.07;;;12.20;99.90;;;;;;5072937;28;20200;-85
2021/11/19 09:49:41;;;;;;;41.47;31.73;;;12.20;99.90;;;;;;5067657;28;20197;-85
2021/11/19 09:52:57;;;;;;;41.43;30.50;;;12.10;99.90;;;;;;5070585;28;20165;-84
2021/11/19 09:55:50;;;;;;;39.17;29.00;;;12.20;99.90;;;;;;5053548;28;20321;-84
2021/11/19 09:58:45;;;;;;;41.27;30.87;;;12.20;99.90;;;;;;5056286;28;20613;-85
2021/11/19 10:01:32;;;;;;;42.30;29.37;;;12.20;99.90;;;;;;5050599;28;20192;-86
2021/11/19 10:04:25;;;;;;;37.87;29.13;;;12.20;99.90;;;;;;5057911;28;20184;-84
2021/11/19 10:07:18;;;;;;;38.70;29.47;;;12.30;99.90;;;;;;5053768;28;20185;-84
2021/11/19 10:10:11;;;;;;;39.20;29.60;;;12.30;99.90;;;;;;5054466;28;20685;-84
2021/11/19 10:13:02;;;;;;;36.97;28.87;;;12.40;99.90;;;;;;5044281;28;20705;-84
2021/11/19 10:15:48;;;;;;;38.10;28.57;;;12.40;99.90;;;;;;5038413;28;20184;-85
2021/11/19 10:18:30;;;;;;;35.83;28.53;;;12.40;99.90;;;;;;5037019;28;20513;-84
2021/11/19 10:21:06;;;;;;;37.07;27.00;;;12.50;99.90;;;;;;5048245;28;20215;-83
2021/11/19 10:23:51;;;;;;;35.70;29.30;;;12.60;99.90;;;;;;5053685;28;20207;-84
2021/11/19 10:26:32;;;;;;;36.17;29.60;;;12.70;99.90;;;;;;5054831;28;20177;-84
2021/11/19 10:29:25;;;;;;;38.00;28.57;;;12.50;99.90;;;;;;5048726;28;20208;-84
2021/11/19 10:31:54;;;;;;;36.00;28.93;;;12.50;99.90;;;;;;5054972;28;20177;-83
2021/11/19 10:34:41;;;;;;;37.50;28.97;;;12.60;99.90;;;;;;5054630;28;20184;-85
2021/11/19 10:37:31;;;;;;;39.83;27.80;;;12.60;99.90;;;;;;5054024;28;20173;-83
2021/11/19 10:40:15;;;;;;;35.63;27.90;;;12.60;99.90;;;;;;5053307;28;20183;-83
2021/11/19 10:43:17;;;;;;;33.10;27.30;;;12.60;99.90;;;;;;5039115;28;20178;-84
2021/11/19 10:45:55;;;;;;;36.53;28.20;;;12.60;99.90;;;;;;5043603;28;20172;-83
2021/11/19 10:49:18;;;;;;;34.50;28.03;;;12.70;99.90;;;;;;5049214;28;20239;-84
2021/11/19 10:52:15;;;;;;;36.17;26.47;;;12.70;99.90;;;;;;4980381;28;20187;-84
2021/11/19 10:55:02;;;;;;;33.83;26.30;;;12.60;99.90;;;;;;4975849;28;20226;-84
2021/11/19 10:57:52;;;;;;;35.50;27.63;;;12.70;99.90;;;;;;5038825;28;20190;-84
2021/11/19 11:00:25;;;;;;;33.80;26.10;;;12.70;99.90;;;;;;5049243;28;20512;-82
2021/11/19 11:02:53;;;;;;;35.70;26.80;;;12.80;99.90;;;;;;5058318;28;20593;-84
2021/11/19 11:05:22;;;;;;;34.00;26.07;;;12.80;99.90;;;;;;5073884;28;20168;-83
2021/11/19 11:08:25;;;;;;;33.10;26.53;;;12.80;99.90;;;;;;5076640;28;20192;-84
2021/11/19 11:10:54;;;;;;;32.03;27.30;;;12.70;99.90;;;;;;5076897;28;20183;-86
2021/11/19 11:13:58;;;;;;;32.27;24.80;;;12.70;99.90;;;;;;5069938;28;20188;-85
2021/11/19 11:16:27;;;;;;;34.30;27.53;;;12.70;99.90;;;;;;5053477;28;20695;-84
2021/11/19 11:18:58;;;;;;;32.43;25.90;;;12.60;99.90;;;;;;5045835;28;20203;-84
2021/11/19 11:21:25;;;;;;;36.17;28.53;;;12.60;99.90;;;;;;5056951;28;20168;-84
2021/11/19 11:24:06;;;;;;;37.83;28.67;;;12.90;99.90;;;;;;5055603;28;20556;-85
2021/11/19 11:26:45;;;;;;;33.07;26.97;;;12.90;99.90;;;;;;5052398;28;20223;-84
2021/11/19 11:29:18;;;;;;;34.73;28.07;;;12.80;99.90;;;;;;5049824;28;20649;-85
2021/11/19 11:32:10;;;;;;;34.13;27.50;;;13.10;99.90;;;;;;5055532;28;20255;-86
2021/11/19 11:35:10;;;;;;;36.53;28.37;;;12.90;99.90;;;;;;5001841;28;20191;-86
2021/11/19 11:37:57;;;;;;;34.77;28.93;;;12.90;99.90;;;;;;5051682;28;20177;-86
2021/11/19 11:40:51;;;;;;;34.30;29.07;;;13.10;99.90;;;;;;5046577;28;20189;-87
2021/11/19 11:43:34;;;;;;;34.53;28.43;;;13.10;99.90;;;;;;5039979;28;20213;-86
2021/11/19 11:46:25;;;;;;;34.23;27.83;;;13.10;99.90;;;;;;5049524;28;20210;-85
2021/11/19 11:48:58;;;;;;;32.73;27.63;;;13.10;99.90;;;;;;5055515;28;20234;-84
2021/11/19 11:52:05;;;;;;;35.17;27.37;;;13.10;99.90;;;;;;5053281;28;20534;-85
2021/11/19 11:54:40;;;;;;;35.53;27.17;;;13.10;99.90;;;;;;5033663;28;20195;-86
2021/11/19 11:57:30;;;;;;;34.10;28.33;;;13.10;99.90;;;;;;5057953;28;20201;-83
2021/11/19 12:00:07;;;;;;;35.83;28.37;;;13.10;99.90;;;;;;5047768;28;20230;-85
2021/11/19 12:02:36;;;;;;;35.53;28.13;;;13.10;99.90;;;;;;5048728;28;20573;-85
2021/11/19 12:05:39;;;;;;;31.00;27.10;;;13.20;99.90;;;;;;5057152;28;20188;-86
2021/11/19 12:08:12;;;;;;;36.97;28.10;;;13.20;99.90;;;;;;5050130;28;20198;-84
2021/11/19 12:10:50;;;;;;;32.70;28.63;;;13.30;99.90;;;;;;5037439;28;20178;-86
2021/11/19 12:13:16;;;;;;;35.10;28.47;;;13.20;99.90;;;;;;5040959;28;20217;-86
2021/11/19 12:15:52;;;;;;;36.10;30.60;;;13.20;99.90;;;;;;5051181;28;20672;-85
2021/11/19 12:18:21;;;;;;;37.43;30.00;;;13.30;99.90;;;;;;5043737;28;20266;-84
2021/11/19 12:21:04;;;;;;;34.20;29.60;;;13.30;99.90;;;;;;5037076;28;20183;-83
2021/11/19 12:23:49;;;;;;;35.90;29.90;;;13.30;99.90;;;;;;5042644;28;20209;-85
2021/11/19 12:26:36;;;;;;;35.77;30.10;;;13.30;99.90;;;;;;5054083;28;20339;-84
2021/11/19 12:29:14;;;;;;;36.53;29.20;;;13.30;99.90;;;;;;5044076;28;20218;-84
2021/11/19 12:32:06;;;;;;;33.63;28.83;;;13.30;99.90;;;;;;5040451;28;20175;-83
2021/11/19 12:34:41;;;;;;;35.13;30.27;;;13.30;99.90;;;;;;5032958;28;20192;-87
2021/11/19 12:37:12;;;;;;;32.03;27.37;;;13.20;99.90;;;;;;5047645;28;20168;-84
2021/11/19 12:39:42;;;;;;;33.53;28.80;;;13.20;99.90;;;;;;5054221;28;20173;-85
2021/11/19 12:42:16;;;;;;;34.63;29.87;;;13.10;99.90;;;;;;5044259;28;20192;-86
2021/11/19 12:44:56;;;;;;;37.03;28.90;;;13.10;99.90;;;;;;5043821;28;20172;-89
2021/11/19 12:47:32;;;;;;;36.60;31.17;;;13.10;99.90;;;;;;5038943;28;20203;-85
2021/11/19 12:50:14;;;;;;;36.53;30.57;;;13.10;99.90;;;;;;5061695;28;20184;-86
2021/11/19 12:52:45;;;;;;;33.57;29.40;;;13.00;99.90;;;;;;5062356;28;20176;-83
2021/11/19 12:55:11;;;;;;;35.93;29.40;;;13.10;99.90;;;;;;5056691;28;20177;-85